createdAt,value
2022-09-11T00:01:59.482Z,30.50
2022-09-11T00:04:30.446Z,30.30
2022-09-11T00:07:01.907Z,30.30
2022-09-11T00:09:32.634Z,30.20
2022-09-11T00:12:06.223Z,30.10
2022-09-11T00:14:36.964Z,30.00
2022-09-11T00:17:07.877Z,30.00
2022-09-11T00:19:41.516Z,30.00
2022-09-11T00:22:12.971Z,29.90
2022-09-11T00:24:43.753Z,29.80
2022-09-11T00:27:16.454Z,29.80
2022-09-11T00:29:47.244Z,29.70
2022-09-11T00:32:18.080Z,29.60
2022-09-11T00:34:48.831Z,29.50
2022-09-11T00:37:19.625Z,29.60
2022-09-11T00:39:51.507Z,29.60
2022-09-11T00:42:24.018Z,29.50
2022-09-11T00:45:03.945Z,29.50
2022-09-11T00:47:34.970Z,29.60
2022-09-11T00:50:15.233Z,29.50
2022-09-11T00:52:54.545Z,29.50
2022-09-11T00:55:29.016Z,29.30
2022-09-11T00:58:03.933Z,29.20
2022-09-11T01:00:34.791Z,29.00
2022-09-11T01:03:05.876Z,28.90
2022-09-11T01:05:40.152Z,28.80
2022-09-11T01:08:11.497Z,28.70
2022-09-11T01:10:52.550Z,28.60
2022-09-11T01:13:36.837Z,28.50
2022-09-11T01:16:19.794Z,28.50
2022-09-11T01:18:58.699Z,28.60
2022-09-11T01:22:14.283Z,28.60
2022-09-11T01:25:02.958Z,28.60
2022-09-11T01:27:49.419Z,28.60
2022-09-11T01:30:22.361Z,28.50
2022-09-11T01:33:18.047Z,28.40
2022-09-11T01:35:58.146Z,28.30
2022-09-11T01:38:36.406Z,28.20
2022-09-11T01:41:10.621Z,28.00
2022-09-11T01:43:46.238Z,28.00
2022-09-11T01:46:23.933Z,27.80
2022-09-11T01:49:01.110Z,27.60
2022-09-11T01:51:35.611Z,27.50
2022-09-11T01:54:09.735Z,27.50
2022-09-11T01:56:45.606Z,27.30
2022-09-11T01:59:22.556Z,27.10
2022-09-11T02:01:57.034Z,27.00
2022-09-11T02:04:31.259Z,26.90
2022-09-11T02:07:06.821Z,26.80
2022-09-11T02:09:42.680Z,26.90
2022-09-11T02:12:16.577Z,26.90
2022-09-11T02:14:52.401Z,26.90
2022-09-11T02:17:30.100Z,26.70
2022-09-11T02:20:03.409Z,26.60
2022-09-11T02:22:34.196Z,26.50
2022-09-11T02:25:05.148Z,26.30
2022-09-11T02:27:36.225Z,26.30
2022-09-11T02:30:09.782Z,26.30
2022-09-11T02:32:43.616Z,26.00
2022-09-11T02:35:17.090Z,25.80
2022-09-11T02:37:56.470Z,25.60
2022-09-11T02:40:42.503Z,25.50
2022-09-11T02:43:28.373Z,25.30
2022-09-11T02:46:17.317Z,25.30
2022-09-11T02:48:56.064Z,25.20
2022-09-11T02:51:34.454Z,25.10
2022-09-11T02:54:14.521Z,25.10
2022-09-11T02:56:50.427Z,25.00
2022-09-11T02:59:25.311Z,25.00
2022-09-11T03:02:02.640Z,25.10
2022-09-11T03:04:35.709Z,25.20
2022-09-11T03:07:06.735Z,25.20
2022-09-11T03:09:37.511Z,25.40
2022-09-11T03:12:08.616Z,25.40
2022-09-11T03:14:39.400Z,25.30
2022-09-11T03:17:14.238Z,25.00
2022-09-11T03:19:45.948Z,25.00
2022-09-11T03:22:17.110Z,25.00
2022-09-11T03:24:48.914Z,24.80
2022-09-11T03:27:19.653Z,24.90
2022-09-11T03:29:50.412Z,24.70
2022-09-11T03:32:23.694Z,24.60
2022-09-11T03:34:54.487Z,24.40
2022-09-11T03:37:25.256Z,24.30
2022-09-11T03:39:56.639Z,24.60
2022-09-11T03:42:28.015Z,24.60
2022-09-11T03:44:58.780Z,24.60
2022-09-11T03:47:31.310Z,24.50
2022-09-11T03:50:02.036Z,24.40
2022-09-11T03:52:32.813Z,24.20
2022-09-11T03:55:03.541Z,24.20
2022-09-11T03:57:36.777Z,24.20
2022-09-11T04:00:08.436Z,24.20
2022-09-11T04:02:40.879Z,24.00
2022-09-11T04:05:12.429Z,23.90
2022-09-11T04:07:43.198Z,23.70
2022-09-11T04:10:14.200Z,23.60
2022-09-11T04:12:44.981Z,23.60
2022-09-11T04:15:16.151Z,23.50
2022-09-11T04:17:49.971Z,23.70
2022-09-11T04:20:22.886Z,23.60
2022-09-11T04:22:54.787Z,23.50
2022-09-11T04:25:26.289Z,23.30
2022-09-11T04:27:57.016Z,23.30
2022-09-11T04:30:27.766Z,23.20
2022-09-11T04:33:00.272Z,23.10
2022-09-11T04:35:31.013Z,22.90
2022-09-11T04:38:01.790Z,22.90
2022-09-11T04:40:32.542Z,22.90
2022-09-11T04:43:03.455Z,22.80
2022-09-11T04:45:34.577Z,22.70
2022-09-11T04:48:07.239Z,22.60
2022-09-11T04:50:38.010Z,22.50
2022-09-11T04:53:08.764Z,22.50
2022-09-11T04:55:39.515Z,22.40
2022-09-11T04:58:10.819Z,22.20
2022-09-11T05:00:41.875Z,22.20
2022-09-11T05:03:14.290Z,22.10
2022-09-11T05:05:45.033Z,22.00
2022-09-11T05:08:16.956Z,21.90
2022-09-11T05:10:47.958Z,21.90
2022-09-11T05:13:18.714Z,21.90
2022-09-11T05:15:49.575Z,21.90
2022-09-11T05:18:21.946Z,21.80
2022-09-11T05:21:01.235Z,21.70
2022-09-11T05:23:32.501Z,21.60
2022-09-11T05:26:03.902Z,21.50
2022-09-11T05:28:35.218Z,21.40
2022-09-11T05:31:14.779Z,21.30
2022-09-11T05:33:48.045Z,21.20
2022-09-11T05:36:19.386Z,21.20
2022-09-11T05:38:50.145Z,21.10
2022-09-11T05:41:21.413Z,21.00
2022-09-11T05:43:52.421Z,21.00
2022-09-11T05:46:23.881Z,20.90
2022-09-11T05:48:56.250Z,20.90
2022-09-11T05:51:27.011Z,20.80
2022-09-11T05:53:59.428Z,20.80
2022-09-11T05:56:30.605Z,20.70
2022-09-11T05:59:01.350Z,20.60
2022-09-11T06:01:32.378Z,20.60
2022-09-11T06:04:05.057Z,20.50
2022-09-11T06:06:35.798Z,20.50
2022-09-11T06:09:07.077Z,20.40
2022-09-11T06:11:38.204Z,20.40
2022-09-11T06:14:09.690Z,20.30
2022-09-11T06:16:41.773Z,20.20
2022-09-11T06:19:14.182Z,20.20
2022-09-11T06:21:45.468Z,20.10
2022-09-11T06:24:16.202Z,20.10
2022-09-11T06:26:47.586Z,20.10
2022-09-11T06:29:18.292Z,20.00
2022-09-11T06:31:52.072Z,20.00
2022-09-11T06:34:24.458Z,19.90
2022-09-11T06:36:56.946Z,19.90
2022-09-11T06:39:27.692Z,19.90
2022-09-11T06:41:58.442Z,19.80
2022-09-11T06:44:29.226Z,19.90
2022-09-11T06:47:00.199Z,19.80
2022-09-11T06:49:33.618Z,19.80
2022-09-11T06:52:04.514Z,19.70
2022-09-11T06:54:35.233Z,19.70
2022-09-11T06:57:05.988Z,19.70
2022-09-11T06:59:36.754Z,19.70
2022-09-11T07:02:07.620Z,19.60
2022-09-11T07:04:40.039Z,19.50
2022-09-11T07:07:11.118Z,19.50
2022-09-11T07:09:41.858Z,19.50
2022-09-11T07:12:12.629Z,19.50
2022-09-11T07:14:43.759Z,19.40
2022-09-11T07:17:14.514Z,19.40
2022-09-11T07:19:46.886Z,19.40
2022-09-11T07:22:17.611Z,19.40
2022-09-11T07:24:48.535Z,19.40
2022-09-11T07:27:20.354Z,19.40
2022-09-11T07:29:51.379Z,19.40
2022-09-11T07:32:22.194Z,19.30
2022-09-11T07:34:54.555Z,19.30
2022-09-11T07:37:25.288Z,19.30
2022-09-11T07:39:56.089Z,19.30
2022-09-11T07:42:26.866Z,19.30
2022-09-11T07:44:57.947Z,19.40
2022-09-11T07:47:29.043Z,19.40
2022-09-11T07:50:01.376Z,19.40
2022-09-11T07:52:32.684Z,19.40
2022-09-11T07:55:04.247Z,19.30
2022-09-11T07:57:35.039Z,19.30
2022-09-11T08:00:06.370Z,19.30
2022-09-11T08:02:37.836Z,19.30
2022-09-11T08:05:10.891Z,19.30
2022-09-11T08:07:41.641Z,19.20
2022-09-11T08:10:26.576Z,19.10
2022-09-11T08:13:00.017Z,19.00
2022-09-11T08:15:31.347Z,19.00
2022-09-11T08:18:02.082Z,19.00
2022-09-11T08:20:34.947Z,18.80
2022-09-11T08:23:05.701Z,18.80
2022-09-11T08:25:38.711Z,18.80
2022-09-11T08:28:09.718Z,18.80
2022-09-11T08:30:40.522Z,18.80
2022-09-11T08:33:11.538Z,18.70
2022-09-11T08:35:43.874Z,18.70
2022-09-11T08:38:14.951Z,18.60
2022-09-11T08:40:45.710Z,18.70
2022-09-11T08:43:23.971Z,18.60
2022-09-11T08:46:00.788Z,18.60
2022-09-11T08:48:38.289Z,18.50
2022-09-11T08:51:12.257Z,18.50
2022-09-11T08:53:43.128Z,18.50
2022-09-11T08:56:18.949Z,18.50
2022-09-11T08:59:03.032Z,18.40
2022-09-11T09:01:41.950Z,18.30
2022-09-11T09:04:42.322Z,18.40
2022-09-11T09:07:24.102Z,18.30
2022-09-11T09:10:05.823Z,18.40
2022-09-11T09:12:46.482Z,18.30
2022-09-11T09:15:42.066Z,18.30
2022-09-11T09:18:17.401Z,18.20
2022-09-11T09:20:54.915Z,18.20
2022-09-11T09:23:31.742Z,18.20
2022-09-11T09:26:03.133Z,18.20
2022-09-11T09:28:37.191Z,18.30
2022-09-11T09:31:11.881Z,18.30
2022-09-11T09:33:51.992Z,18.30
2022-09-11T09:36:26.416Z,18.20
2022-09-11T09:39:00.193Z,18.20
2022-09-11T09:41:57.628Z,18.40
2022-09-11T09:44:40.430Z,18.50
2022-09-11T09:47:14.508Z,18.40
2022-09-11T09:49:46.675Z,18.40
2022-09-11T09:52:21.914Z,18.40
2022-09-11T09:55:00.925Z,18.40
2022-09-11T09:57:35.205Z,18.50
2022-09-11T10:00:09.139Z,18.50
2022-09-11T10:02:46.257Z,18.50
2022-09-11T10:05:24.250Z,18.50
2022-09-11T10:07:56.268Z,18.40
2022-09-11T10:10:31.976Z,18.30
2022-09-11T10:13:18.620Z,18.30
2022-09-11T10:15:52.211Z,18.30
2022-09-11T10:18:40.949Z,18.30
2022-09-11T10:21:26.614Z,18.20
2022-09-11T10:23:59.168Z,18.20
2022-09-11T10:26:36.161Z,18.20
2022-09-11T10:29:11.173Z,18.20
2022-09-11T10:31:44.223Z,18.20
2022-09-11T10:34:20.997Z,18.20
2022-09-11T10:36:59.935Z,18.20
2022-09-11T10:39:33.004Z,18.30
2022-09-11T10:42:17.441Z,18.30
2022-09-11T10:44:50.511Z,18.30
2022-09-11T10:47:25.850Z,18.40
2022-09-11T10:50:21.903Z,18.40
2022-09-11T10:53:04.933Z,18.50
2022-09-11T10:55:41.011Z,18.50
2022-09-11T10:58:19.566Z,18.60
2022-09-11T11:00:52.687Z,18.60
2022-09-11T11:03:27.006Z,18.60
2022-09-11T11:06:09.516Z,18.70
2022-09-11T11:09:10.250Z,18.70
2022-09-11T11:11:58.494Z,18.70
2022-09-11T11:14:48.891Z,18.60
2022-09-11T11:17:26.782Z,18.70
2022-09-11T11:20:19.361Z,18.70
2022-09-11T11:23:23.054Z,18.70
2022-09-11T11:26:07.529Z,18.60
2022-09-11T11:28:57.651Z,18.50
2022-09-11T11:31:44.625Z,18.50
2022-09-11T11:34:47.746Z,18.50
2022-09-11T11:37:21.641Z,18.50
2022-09-11T11:40:03.002Z,18.40
2022-09-11T11:42:37.718Z,18.30
2022-09-11T11:45:25.099Z,18.30
2022-09-11T11:47:57.962Z,18.30
2022-09-11T11:50:32.198Z,18.30
2022-09-11T11:53:13.178Z,18.30
2022-09-11T11:55:53.315Z,18.30
2022-09-11T11:58:35.409Z,18.30
2022-09-11T12:01:13.547Z,18.20
2022-09-11T12:03:51.273Z,18.20
2022-09-11T12:06:22.068Z,18.20
2022-09-11T12:08:52.879Z,18.20
2022-09-11T12:11:32.510Z,18.00
2022-09-11T12:14:03.733Z,18.00
2022-09-11T12:16:36.630Z,18.00
2022-09-11T12:19:15.541Z,18.00
2022-09-11T12:22:08.658Z,18.00
2022-09-11T12:24:59.631Z,18.00
2022-09-11T12:27:56.548Z,18.00
2022-09-11T12:30:30.026Z,17.90
2022-09-11T12:33:02.136Z,17.90
2022-09-11T12:35:46.537Z,17.70
2022-09-11T12:38:27.288Z,17.60
2022-09-11T12:41:00.672Z,17.60
2022-09-11T12:43:49.104Z,17.50
2022-09-11T12:46:53.852Z,17.50
2022-09-11T12:49:27.989Z,17.60
2022-09-11T12:52:02.193Z,17.60
2022-09-11T12:54:36.298Z,17.50
2022-09-11T12:57:10.512Z,17.50
2022-09-11T12:59:44.094Z,17.40
2022-09-11T13:02:28.546Z,17.40
2022-09-11T13:05:00.429Z,17.30
2022-09-11T13:07:42.987Z,17.20
2022-09-11T13:10:29.628Z,17.10
2022-09-11T13:13:00.638Z,17.10
2022-09-11T13:15:39.747Z,17.10
2022-09-11T13:18:32.381Z,17.00
2022-09-11T13:21:16.019Z,17.00
2022-09-11T13:23:51.786Z,17.00
2022-09-11T13:26:29.438Z,17.00
2022-09-11T13:29:01.874Z,16.90
2022-09-11T13:31:38.210Z,16.90
2022-09-11T13:34:15.858Z,16.90
2022-09-11T13:36:48.045Z,16.90
2022-09-11T13:39:21.827Z,17.00
2022-09-11T13:41:55.149Z,17.00
2022-09-11T13:44:40.414Z,17.00
2022-09-11T13:47:21.812Z,17.20
2022-09-11T13:49:55.983Z,17.20
2022-09-11T13:52:29.371Z,17.20
2022-09-11T13:55:05.866Z,17.20
2022-09-11T13:57:38.128Z,17.20
2022-09-11T14:00:38.407Z,17.10
2022-09-11T14:03:17.664Z,17.10
2022-09-11T14:05:56.305Z,17.10
2022-09-11T14:08:35.587Z,17.10
2022-09-11T14:11:11.599Z,17.10
2022-09-11T14:13:49.320Z,17.10
2022-09-11T14:16:27.042Z,17.20
2022-09-11T14:19:01.044Z,17.20
2022-09-11T14:21:37.115Z,17.30
2022-09-11T14:24:27.664Z,17.30
2022-09-11T14:27:00.338Z,17.40
2022-09-11T14:29:32.867Z,17.50
2022-09-11T14:32:33.342Z,17.60
2022-09-11T14:35:04.499Z,17.70
2022-09-11T14:37:37.353Z,17.90
2022-09-11T14:40:09.920Z,18.00
2022-09-11T14:42:44.774Z,18.20
2022-09-11T14:45:23.064Z,18.30
2022-09-11T14:47:54.191Z,18.40
2022-09-11T14:50:25.496Z,18.40
2022-09-11T14:52:56.272Z,18.50
2022-09-11T14:55:27.030Z,18.60
2022-09-11T14:57:59.566Z,18.80
2022-09-11T15:00:32.735Z,19.00
2022-09-11T15:03:04.964Z,19.20
2022-09-11T15:05:35.902Z,19.30
2022-09-11T15:08:07.021Z,19.40
2022-09-11T15:10:38.022Z,19.50
2022-09-11T15:13:11.055Z,19.60
2022-09-11T15:15:42.038Z,19.80
2022-09-11T15:18:13.021Z,20.00
2022-09-11T15:20:43.842Z,20.10
2022-09-11T15:23:14.581Z,20.30
2022-09-11T15:25:45.363Z,20.50
2022-09-11T15:28:17.880Z,20.70
2022-09-11T15:30:58.035Z,20.80
2022-09-11T15:33:29.469Z,21.10
2022-09-11T15:36:05.954Z,21.40
2022-09-11T15:38:36.717Z,21.50
2022-09-11T15:41:09.797Z,21.60
2022-09-11T15:43:42.464Z,21.50
2022-09-11T15:46:14.160Z,21.50
2022-09-11T15:48:44.935Z,21.30
2022-09-11T15:51:17.718Z,21.30
2022-09-11T15:53:49.015Z,21.20
2022-09-11T15:56:25.858Z,21.30
2022-09-11T15:59:01.798Z,21.40
2022-09-11T16:01:35.253Z,21.40
2022-09-11T16:04:07.181Z,21.50
2022-09-11T16:06:42.000Z,21.80
2022-09-11T16:09:16.225Z,22.50
2022-09-11T16:11:48.604Z,23.10
2022-09-11T16:14:22.786Z,23.50
2022-09-11T16:16:54.182Z,23.90
2022-09-11T16:19:28.795Z,24.40
2022-09-11T16:22:01.812Z,24.80
2022-09-11T16:24:37.009Z,25.00
2022-09-11T16:27:09.260Z,24.60
2022-09-11T16:32:38.194Z,24.20
2022-09-11T16:35:14.038Z,24.40
2022-09-11T16:37:44.999Z,25.20
2022-09-11T16:40:15.809Z,25.90
2022-09-11T16:42:46.626Z,26.80
2022-09-11T16:45:20.447Z,27.40
2022-09-11T16:47:51.253Z,27.60
2022-09-11T16:50:22.316Z,27.40
2022-09-11T16:52:53.338Z,26.90
2022-09-11T16:55:24.138Z,26.70
2022-09-11T16:57:54.893Z,27.20
2022-09-11T17:00:27.751Z,27.50
2022-09-11T17:02:58.572Z,27.60
2022-09-11T17:05:29.370Z,27.60
2022-09-11T17:08:00.206Z,28.20
2022-09-11T17:10:31.106Z,28.40
2022-09-11T17:13:01.887Z,28.10
2022-09-11T17:15:37.552Z,29.00
2022-09-11T17:18:08.409Z,29.50
2022-09-11T17:20:39.569Z,29.50
2022-09-11T17:23:11.983Z,29.60
2022-09-11T17:25:44.024Z,28.90
2022-09-11T17:28:14.824Z,30.20
2022-09-11T17:30:47.216Z,29.70
2022-09-11T17:33:18.793Z,28.80
2022-09-11T17:35:49.974Z,28.60
2022-09-11T17:38:20.884Z,28.90
2022-09-11T17:40:51.670Z,29.70
2022-09-11T17:43:22.430Z,28.90
2022-09-11T17:45:55.257Z,29.00
2022-09-11T17:48:25.997Z,29.30
2022-09-11T17:51:04.765Z,30.00
2022-09-11T17:53:38.736Z,30.30
2022-09-11T17:56:11.537Z,31.00
2022-09-11T17:58:45.186Z,30.40
2022-09-11T18:01:17.816Z,30.60
2022-09-11T18:03:53.860Z,31.00
2022-09-11T18:06:29.090Z,31.10
2022-09-11T18:09:02.520Z,31.20
2022-09-11T18:11:33.337Z,30.80
2022-09-11T18:14:04.138Z,31.00
2022-09-11T18:16:36.598Z,31.20
2022-09-11T18:19:07.765Z,29.70
2022-09-11T18:21:38.543Z,29.60
2022-09-11T18:24:10.044Z,28.70
2022-09-11T18:26:41.698Z,28.50
2022-09-11T18:29:15.173Z,28.60
2022-09-11T18:31:50.125Z,28.50
2022-09-11T18:34:22.995Z,28.50
2022-09-11T18:36:54.085Z,28.00
2022-09-11T18:39:25.331Z,27.80
2022-09-11T18:41:56.075Z,27.60
2022-09-11T18:44:27.548Z,27.50
2022-09-11T18:47:00.555Z,27.60
2022-09-11T18:49:31.466Z,27.70
2022-09-11T18:52:02.826Z,27.60
2022-09-11T18:54:34.419Z,27.00
2022-09-11T18:57:05.478Z,26.60
2022-09-11T18:59:36.274Z,26.50
2022-09-11T19:02:09.316Z,26.40
2022-09-11T19:04:40.142Z,27.00
2022-09-11T19:07:11.010Z,27.10
2022-09-11T19:09:45.778Z,27.10
2022-09-11T19:12:17.163Z,27.30
2022-09-11T19:14:48.379Z,27.40
2022-09-11T19:17:20.868Z,27.40
2022-09-11T19:19:52.671Z,27.50
2022-09-11T19:22:25.573Z,27.60
2022-09-11T19:24:56.386Z,27.90
2022-09-11T19:27:28.179Z,28.00
2022-09-11T19:30:00.424Z,28.10
2022-09-11T19:32:33.075Z,28.40
2022-09-11T19:35:04.711Z,28.20
2022-09-11T19:37:35.533Z,28.40
2022-09-11T19:40:07.948Z,28.50
2022-09-11T19:42:38.762Z,28.80
2022-09-11T19:45:10.778Z,28.70
2022-09-11T19:47:43.147Z,29.00
2022-09-11T19:50:18.259Z,28.60
2022-09-11T19:52:49.042Z,28.30
2022-09-11T19:55:19.900Z,28.50
2022-09-11T19:57:50.647Z,28.20
2022-09-11T20:00:21.559Z,28.00
2022-09-11T20:02:53.936Z,27.90
2022-09-11T20:05:24.784Z,28.00
2022-09-11T20:07:56.495Z,28.10
2022-09-11T20:10:28.514Z,28.30
2022-09-11T20:13:00.449Z,28.10
2022-09-11T20:15:32.418Z,27.70
2022-09-11T20:18:04.925Z,27.60
2022-09-11T20:20:36.758Z,27.50
2022-09-11T20:23:07.771Z,27.50
2022-09-11T20:25:38.609Z,27.70
2022-09-11T20:28:11.275Z,27.60
2022-09-11T20:30:44.515Z,27.60
2022-09-11T20:33:17.140Z,27.80
2022-09-11T20:35:48.550Z,28.00
2022-09-11T20:38:19.503Z,28.50
2022-09-11T20:40:50.282Z,28.30
2022-09-11T20:43:21.041Z,28.60
2022-09-11T20:45:51.882Z,28.40
2022-09-11T20:48:24.279Z,28.30
2022-09-11T20:50:55.182Z,28.10
2022-09-11T20:53:25.991Z,27.90
2022-09-11T20:55:56.751Z,27.80
2022-09-11T20:58:27.488Z,27.50
2022-09-11T21:00:58.254Z,27.20
2022-09-11T21:03:31.859Z,26.80
2022-09-11T21:06:09.292Z,26.80
2022-09-11T21:08:40.738Z,26.80
2022-09-11T21:11:12.199Z,26.90
2022-09-11T21:13:44.571Z,27.00
2022-09-11T21:16:17.320Z,27.20
2022-09-11T21:18:52.050Z,27.30
2022-09-11T21:21:24.482Z,27.20
2022-09-11T21:23:57.873Z,27.10
2022-09-11T21:26:29.674Z,27.20
2022-09-11T21:29:01.107Z,27.10
2022-09-11T21:31:32.565Z,26.90
2022-09-11T21:34:05.450Z,26.60
2022-09-11T21:36:37.560Z,26.40
2022-09-11T21:39:08.518Z,26.50
2022-09-11T21:41:39.358Z,26.70
2022-09-11T21:44:10.305Z,26.50
2022-09-11T21:46:41.095Z,26.40
2022-09-11T21:49:14.316Z,26.30
2022-09-11T21:51:45.063Z,26.20
2022-09-11T21:54:15.808Z,26.20
2022-09-11T21:56:46.606Z,26.40
2022-09-11T21:59:17.322Z,26.40
2022-09-11T22:01:48.152Z,26.30
2022-09-11T22:04:20.573Z,26.20
2022-09-11T22:06:51.373Z,26.00
2022-09-11T22:09:22.143Z,25.90
2022-09-11T22:11:54.813Z,25.90
2022-09-11T22:14:28.778Z,25.90
2022-09-11T22:16:59.564Z,25.90
2022-09-11T22:19:32.178Z,26.00
2022-09-11T22:22:02.917Z,26.10
2022-09-11T22:24:34.496Z,26.40
2022-09-11T22:27:05.278Z,26.90
2022-09-11T22:29:36.145Z,27.20
2022-09-11T22:32:07.128Z,27.40
2022-09-11T22:34:40.230Z,27.10
2022-09-11T22:37:11.059Z,27.30
2022-09-11T22:39:41.968Z,27.40
2022-09-11T22:42:12.811Z,27.50
2022-09-11T22:44:43.530Z,27.40
2022-09-11T22:47:14.301Z,27.20
2022-09-11T22:49:46.721Z,27.20
2022-09-11T22:52:17.622Z,27.40
2022-09-11T22:54:48.676Z,27.50
2022-09-11T22:57:19.538Z,27.40
2022-09-11T22:59:50.274Z,27.40
2022-09-11T23:02:22.077Z,27.40
2022-09-11T23:05:07.735Z,27.20
2022-09-11T23:07:39.211Z,27.20
2022-09-11T23:10:11.335Z,26.90
2022-09-11T23:12:42.108Z,26.90
2022-09-11T23:15:13.803Z,26.90
2022-09-11T23:17:44.918Z,26.90
2022-09-11T23:20:17.302Z,26.90
2022-09-11T23:22:48.027Z,26.90
2022-09-11T23:25:19.015Z,26.90
2022-09-11T23:27:50.337Z,26.90
2022-09-11T23:30:21.171Z,26.90
2022-09-11T23:32:51.896Z,27.00
2022-09-11T23:35:24.715Z,27.00
2022-09-11T23:37:55.475Z,27.10
2022-09-11T23:40:29.214Z,27.10
2022-09-11T23:43:02.877Z,27.10
2022-09-11T23:45:33.705Z,27.20
2022-09-11T23:48:04.739Z,27.10
2022-09-11T23:50:39.935Z,26.80
2022-09-11T23:53:11.989Z,26.80
2022-09-11T23:55:42.730Z,26.60
2022-09-11T23:58:13.488Z,26.40
